sensor_id;sensor_type;location;lat;lon;timestamp;pressure;altitude;pressure_sealevel;temperature;humidity
21728;BME280;11026;50.560;17.852;2024-03-17T00:01:20;99951.06;;;6.83;93.69
21728;BME280;11026;50.560;17.852;2024-03-17T00:03:46;99951.97;;;6.82;94.24
21728;BME280;11026;50.560;17.852;2024-03-17T00:06:12;99965.13;;;6.81;94.02
21728;BME280;11026;50.560;17.852;2024-03-17T00:08:38;99968.66;;;6.81;95.54
21728;BME280;11026;50.560;17.852;2024-03-17T00:11:05;99963.44;;;6.78;95.61
21728;BME280;11026;50.560;17.852;2024-03-17T00:13:31;99964.38;;;6.76;95.84
21728;BME280;11026;50.560;17.852;2024-03-17T00:15:57;99965.44;;;6.67;96.55
21728;BME280;11026;50.560;17.852;2024-03-17T00:18:26;99977.88;;;6.59;95.09
21728;BME280;11026;50.560;17.852;2024-03-17T00:20:55;99975.09;;;6.67;94.93
21728;BME280;11026;50.560;17.852;2024-03-17T00:23:21;99983.94;;;6.61;95.98
21728;BME280;11026;50.560;17.852;2024-03-17T00:25:49;99984.19;;;6.50;96.62
21728;BME280;11026;50.560;17.852;2024-03-17T00:28:17;99986.69;;;6.56;95.92
21728;BME280;11026;50.560;17.852;2024-03-17T00:30:43;99979.03;;;6.44;95.68
21728;BME280;11026;50.560;17.852;2024-03-17T00:33:13;99992.94;;;6.49;95.37
21728;BME280;11026;50.560;17.852;2024-03-17T00:35:42;99985.31;;;6.37;95.88
21728;BME280;11026;50.560;17.852;2024-03-17T00:38:08;99981.00;;;6.33;94.59
21728;BME280;11026;50.560;17.852;2024-03-17T00:40:38;99975.75;;;6.34;94.64
21728;BME280;11026;50.560;17.852;2024-03-17T00:43:06;99995.97;;;6.31;95.87
21728;BME280;11026;50.560;17.852;2024-03-17T00:45:34;99995.97;;;6.31;95.64
21728;BME280;11026;50.560;17.852;2024-03-17T00:48:03;99999.69;;;6.18;97.71
21728;BME280;11026;50.560;17.852;2024-03-17T00:50:29;100002.25;;;6.22;97.36
21728;BME280;11026;50.560;17.852;2024-03-17T00:52:57;100001.59;;;6.11;96.19
21728;BME280;11026;50.560;17.852;2024-03-17T00:55:23;100014.59;;;6.19;94.64
21728;BME280;11026;50.560;17.852;2024-03-17T00:57:49;99993.56;;;6.17;93.39
21728;BME280;11026;50.560;17.852;2024-03-17T01:00:16;99997.25;;;6.08;94.25
21728;BME280;11026;50.560;17.852;2024-03-17T01:02:43;100001.63;;;6.08;95.12
21728;BME280;11026;50.560;17.852;2024-03-17T01:05:09;100003.50;;;6.03;94.62
21728;BME280;11026;50.560;17.852;2024-03-17T01:07:35;100003.59;;;5.97;94.46
21728;BME280;11026;50.560;17.852;2024-03-17T01:10:01;100005.41;;;5.91;94.67
21728;BME280;11026;50.560;17.852;2024-03-17T01:12:29;100007.34;;;5.80;94.66
21728;BME280;11026;50.560;17.852;2024-03-17T01:14:55;99996.88;;;5.79;95.32
21728;BME280;11026;50.560;17.852;2024-03-17T01:17:21;99985.47;;;5.80;96.24
21728;BME280;11026;50.560;17.852;2024-03-17T01:19:47;99996.06;;;5.74;95.14
21728;BME280;11026;50.560;17.852;2024-03-17T01:22:13;100005.03;;;5.60;96.20
21728;BME280;11026;50.560;17.852;2024-03-17T01:24:39;99990.72;;;5.27;99.11
21728;BME280;11026;50.560;17.852;2024-03-17T01:27:08;99998.97;;;5.58;98.80
21728;BME280;11026;50.560;17.852;2024-03-17T01:29:40;99999.00;;;5.55;99.14
21728;BME280;11026;50.560;17.852;2024-03-17T01:32:06;100000.03;;;5.45;99.15
21728;BME280;11026;50.560;17.852;2024-03-17T01:34:35;100001.63;;;5.55;99.08
21728;BME280;11026;50.560;17.852;2024-03-17T01:37:01;100004.31;;;5.52;99.35
21728;BME280;11026;50.560;17.852;2024-03-17T01:39:30;100005.19;;;5.51;99.48
21728;BME280;11026;50.560;17.852;2024-03-17T01:42:00;100007.28;;;5.31;100.00
21728;BME280;11026;50.560;17.852;2024-03-17T01:44:32;100005.69;;;5.17;100.00
21728;BME280;11026;50.560;17.852;2024-03-17T01:46:59;100001.41;;;5.12;100.00
21728;BME280;11026;50.560;17.852;2024-03-17T01:49:26;100002.31;;;5.09;100.00
21728;BME280;11026;50.560;17.852;2024-03-17T01:51:53;100002.13;;;5.23;100.00
21728;BME280;11026;50.560;17.852;2024-03-17T01:54:20;100000.38;;;5.22;100.00
21728;BME280;11026;50.560;17.852;2024-03-17T01:56:47;100005.81;;;5.11;100.00
21728;BME280;11026;50.560;17.852;2024-03-17T01:59:13;100007.47;;;5.17;100.00
21728;BME280;11026;50.560;17.852;2024-03-17T02:01:39;100016.22;;;5.16;100.00
21728;BME280;11026;50.560;17.852;2024-03-17T02:04:06;100017.13;;;5.15;100.00
21728;BME280;11026;50.560;17.852;2024-03-17T02:06:33;100018.69;;;5.27;100.00
21728;BME280;11026;50.560;17.852;2024-03-17T02:08:59;100010.94;;;5.19;100.00
21728;BME280;11026;50.560;17.852;2024-03-17T02:11:32;100016.94;;;5.26;100.00
21728;BME280;11026;50.560;17.852;2024-03-17T02:14:02;100021.44;;;5.17;100.00
21728;BME280;11026;50.560;17.852;2024-03-17T02:16:29;100014.38;;;5.23;100.00
21728;BME280;11026;50.560;17.852;2024-03-17T02:18:56;100021.75;;;4.96;100.00
21728;BME280;11026;50.560;17.852;2024-03-17T02:21:23;100013.63;;;5.13;100.00
21728;BME280;11026;50.560;17.852;2024-03-17T02:23:51;100020.03;;;4.95;100.00
21728;BME280;11026;50.560;17.852;2024-03-17T02:26:17;100023.44;;;5.00;100.00
21728;BME280;11026;50.560;17.852;2024-03-17T02:28:46;100025.97;;;5.08;100.00
21728;BME280;11026;50.560;17.852;2024-03-17T02:31:14;100021.72;;;4.99;100.00
21728;BME280;11026;50.560;17.852;2024-03-17T02:33:42;100030.41;;;5.01;100.00
21728;BME280;11026;50.560;17.852;2024-03-17T02:36:10;100031.38;;;4.96;100.00
21728;BME280;11026;50.560;17.852;2024-03-17T02:38:41;100027.00;;;4.94;100.00
21728;BME280;11026;50.560;17.852;2024-03-17T02:41:21;100033.06;;;5.00;100.00
21728;BME280;11026;50.560;17.852;2024-03-17T02:43:49;100030.47;;;4.97;100.00
21728;BME280;11026;50.560;17.852;2024-03-17T02:46:16;100029.66;;;4.91;100.00
21728;BME280;11026;50.560;17.852;2024-03-17T02:48:49;100028.75;;;4.94;100.00
21728;BME280;11026;50.560;17.852;2024-03-17T02:51:18;100021.03;;;4.82;100.00
21728;BME280;11026;50.560;17.852;2024-03-17T02:53:47;100029.19;;;4.60;100.00
21728;BME280;11026;50.560;17.852;2024-03-17T02:56:15;100022.91;;;4.74;100.00
21728;BME280;11026;50.560;17.852;2024-03-17T02:58:45;100032.50;;;4.76;100.00
21728;BME280;11026;50.560;17.852;2024-03-17T03:01:12;100029.09;;;4.68;100.00
21728;BME280;11026;50.560;17.852;2024-03-17T03:03:39;100038.75;;;4.63;100.00
21728;BME280;11026;50.560;17.852;2024-03-17T03:06:04;100030.97;;;4.55;100.00
21728;BME280;11026;50.560;17.852;2024-03-17T03:08:42;100026.47;;;4.66;100.00
21728;BME280;11026;50.560;17.852;2024-03-17T03:11:12;100039.72;;;4.54;100.00
21728;BME280;11026;50.560;17.852;2024-03-17T03:13:42;100038.81;;;4.60;100.00
21728;BME280;11026;50.560;17.852;2024-03-17T03:16:11;100037.03;;;4.60;100.00
21728;BME280;11026;50.560;17.852;2024-03-17T03:18:40;100043.22;;;4.56;100.00
21728;BME280;11026;50.560;17.852;2024-03-17T03:21:07;100042.38;;;4.51;100.00
21728;BME280;11026;50.560;17.852;2024-03-17T03:23:34;100045.09;;;4.42;100.00
21728;BME280;11026;50.560;17.852;2024-03-17T03:26:03;100050.38;;;4.39;100.00
21728;BME280;11026;50.560;17.852;2024-03-17T03:28:33;100052.16;;;4.37;100.00
21728;BME280;11026;50.560;17.852;2024-03-17T03:31:03;100044.34;;;4.31;100.00
21728;BME280;11026;50.560;17.852;2024-03-17T03:33:28;100056.59;;;4.29;100.00
21728;BME280;11026;50.560;17.852;2024-03-17T03:35:54;100053.97;;;4.29;100.00
21728;BME280;11026;50.560;17.852;2024-03-17T03:38:22;100056.59;;;4.27;100.00
21728;BME280;11026;50.560;17.852;2024-03-17T03:40:49;100066.28;;;4.21;100.00
21728;BME280;11026;50.560;17.852;2024-03-17T03:43:15;100054.91;;;4.22;100.00
21728;BME280;11026;50.560;17.852;2024-03-17T03:45:41;100051.38;;;4.26;100.00
21728;BME280;11026;50.560;17.852;2024-03-17T03:48:09;100060.97;;;4.27;100.00
21728;BME280;11026;50.560;17.852;2024-03-17T03:50:36;100061.84;;;4.29;100.00
21728;BME280;11026;50.560;17.852;2024-03-17T03:53:03;100055.75;;;4.25;100.00
21728;BME280;11026;50.560;17.852;2024-03-17T03:55:30;100058.41;;;4.19;100.00
21728;BME280;11026;50.560;17.852;2024-03-17T03:57:56;100065.41;;;4.18;100.00
21728;BME280;11026;50.560;17.852;2024-03-17T04:00:22;100060.19;;;4.15;100.00
21728;BME280;11026;50.560;17.852;2024-03-17T04:02:52;100055.00;;;4.14;100.00
21728;BME280;11026;50.560;17.852;2024-03-17T04:05:19;100051.56;;;4.09;100.00
21728;BME280;11026;50.560;17.852;2024-03-17T04:07:47;100065.53;;;4.06;100.00
21728;BME280;11026;50.560;17.852;2024-03-17T04:10:15;100064.69;;;4.04;100.00
21728;BME280;11026;50.560;17.852;2024-03-17T04:12:42;100056.00;;;3.99;100.00
21728;BME280;11026;50.560;17.852;2024-03-17T04:15:08;100073.50;;;3.91;100.00
21728;BME280;11026;50.560;17.852;2024-03-17T04:17:37;100079.59;;;3.94;100.00
21728;BME280;11026;50.560;17.852;2024-03-17T04:20:04;100077.88;;;3.90;100.00
21728;BME280;11026;50.560;17.852;2024-03-17T04:22:34;100077.88;;;3.90;100.00
21728;BME280;11026;50.560;17.852;2024-03-17T04:25:00;100084.94;;;3.79;100.00
21728;BME280;11026;50.560;17.852;2024-03-17T04:27:26;100097.09;;;3.88;100.00
21728;BME280;11026;50.560;17.852;2024-03-17T04:29:53;100077.91;;;3.87;100.00
21728;BME280;11026;50.560;17.852;2024-03-17T04:32:20;100093.63;;;3.89;100.00
21728;BME280;11026;50.560;17.852;2024-03-17T04:34:46;100098.13;;;3.68;100.00
21728;BME280;11026;50.560;17.852;2024-03-17T04:37:14;100107.66;;;3.76;100.00
21728;BME280;11026;50.560;17.852;2024-03-17T04:39:44;100105.09;;;3.73;100.00
21728;BME280;11026;50.560;17.852;2024-03-17T04:42:12;100112.06;;;3.67;100.00
21728;BME280;11026;50.560;17.852;2024-03-17T04:44:43;100112.16;;;3.55;100.00
21728;BME280;11026;50.560;17.852;2024-03-17T04:47:10;100119.19;;;3.47;100.00
21728;BME280;11026;50.560;17.852;2024-03-17T04:49:37;100105.25;;;3.42;100.00
21728;BME280;11026;50.560;17.852;2024-03-17T04:52:03;100104.44;;;3.34;100.00
21728;BME280;11026;50.560;17.852;2024-03-17T04:54:34;100104.44;;;3.31;100.00
21728;BME280;11026;50.560;17.852;2024-03-17T04:57:02;100103.63;;;3.16;100.00
21728;BME280;11026;50.560;17.852;2024-03-17T04:59:28;100112.28;;;3.31;100.00
21728;BME280;11026;50.560;17.852;2024-03-17T05:01:56;100107.06;;;3.28;100.00
21728;BME280;11026;50.560;17.852;2024-03-17T05:04:22;100105.41;;;3.11;100.00
21728;BME280;11026;50.560;17.852;2024-03-17T05:06:49;100113.31;;;2.99;100.00
21728;BME280;11026;50.560;17.852;2024-03-17T05:09:16;100115.88;;;3.14;100.00
21728;BME280;11026;50.560;17.852;2024-03-17T05:11:45;100118.50;;;3.10;100.00
21728;BME280;11026;50.560;17.852;2024-03-17T05:14:13;100115.88;;;3.14;100.00
21728;BME280;11026;50.560;17.852;2024-03-17T05:16:40;100118.56;;;2.94;100.00
21728;BME280;11026;50.560;17.852;2024-03-17T05:19:08;100122.09;;;2.81;100.00
21728;BME280;11026;50.560;17.852;2024-03-17T05:21:37;100128.19;;;2.77;100.00
21728;BME280;11026;50.560;17.852;2024-03-17T05:24:03;100129.06;;;2.73;100.00
21728;BME280;11026;50.560;17.852;2024-03-17T05:26:28;100132.56;;;2.69;100.00
21728;BME280;11026;50.560;17.852;2024-03-17T05:28:58;100130.81;;;2.72;100.00
21728;BME280;11026;50.560;17.852;2024-03-17T05:31:27;100132.56;;;2.81;100.00
21728;BME280;11026;50.560;17.852;2024-03-17T05:33:53;100133.38;;;2.92;100.00
21728;BME280;11026;50.560;17.852;2024-03-17T05:36:20;100121.09;;;3.17;100.00
21728;BME280;11026;50.560;17.852;2024-03-17T05:38:47;100128.91;;;3.19;100.00
21728;BME280;11026;50.560;17.852;2024-03-17T05:41:13;100132.44;;;3.12;100.00
21728;BME280;11026;50.560;17.852;2024-03-17T05:43:41;100135.91;;;3.15;100.00
21728;BME280;11026;50.560;17.852;2024-03-17T05:46:11;100130.72;;;3.03;100.00
21728;BME280;11026;50.560;17.852;2024-03-17T05:48:41;100142.94;;;3.00;100.00
21728;BME280;11026;50.560;17.852;2024-03-17T05:51:10;100134.22;;;2.99;100.00
21728;BME280;11026;50.560;17.852;2024-03-17T05:53:38;100138.56;;;3.06;100.00
21728;BME280;11026;50.560;17.852;2024-03-17T05:56:06;100143.78;;;3.06;100.00
21728;BME280;11026;50.560;17.852;2024-03-17T05:58:37;100141.19;;;3.06;100.00
21728;BME280;11026;50.560;17.852;2024-03-17T06:01:07;100144.56;;;3.24;100.00
21728;BME280;11026;50.560;17.852;2024-03-17T06:03:37;100141.06;;;3.34;100.00
21728;BME280;11026;50.560;17.852;2024-03-17T06:06:04;100144.50;;;3.42;100.00
21728;BME280;11026;50.560;17.852;2024-03-17T06:08:36;100141.84;;;3.48;100.00
21728;BME280;11026;50.560;17.852;2024-03-17T06:11:02;100141.78;;;3.60;100.00
21728;BME280;11026;50.560;17.852;2024-03-17T06:13:29;100153.84;;;3.80;100.00
21728;BME280;11026;50.560;17.852;2024-03-17T06:15:55;100155.56;;;3.84;100.00
21728;BME280;11026;50.560;17.852;2024-03-17T06:18:27;100148.50;;;3.98;99.52
21728;BME280;11026;50.560;17.852;2024-03-17T06:20:54;100149.31;;;4.06;98.07
21728;BME280;11026;50.560;17.852;2024-03-17T06:23:24;100158.88;;;4.13;93.63
21728;BME280;11026;50.560;17.852;2024-03-17T06:25:54;100141.19;;;4.35;93.24
21728;BME280;11026;50.560;17.852;2024-03-17T06:28:23;100155.16;;;4.39;92.44
21728;BME280;11026;50.560;17.852;2024-03-17T06:30:57;100169.09;;;4.44;91.86
21728;BME280;11026;50.560;17.852;2024-03-17T06:33:29;100156.91;;;4.40;88.16
21728;BME280;11026;50.560;17.852;2024-03-17T06:35:57;100144.59;;;4.48;90.22
21728;BME280;11026;50.560;17.852;2024-03-17T06:38:24;100155.19;;;4.34;88.36
21728;BME280;11026;50.560;17.852;2024-03-17T06:40:51;100144.66;;;4.40;88.09
21728;BME280;11026;50.560;17.852;2024-03-17T06:43:18;100146.44;;;4.37;87.37
21728;BME280;11026;50.560;17.852;2024-03-17T06:45:55;100147.16;;;4.54;86.94
21728;BME280;11026;50.560;17.852;2024-03-17T06:48:23;100159.25;;;4.67;85.54
21728;BME280;11026;50.560;17.852;2024-03-17T06:50:49;100156.66;;;4.67;83.52
21728;BME280;11026;50.560;17.852;2024-03-17T06:53:19;100169.66;;;4.77;83.66
21728;BME280;11026;50.560;17.852;2024-03-17T06:55:55;100179.19;;;4.84;82.28
21728;BME280;11026;50.560;17.852;2024-03-17T06:58:22;100179.22;;;4.81;83.47
21728;BME280;11026;50.560;17.852;2024-03-17T07:00:58;100176.53;;;4.85;81.01
21728;BME280;11026;50.560;17.852;2024-03-17T07:03:29;100165.25;;;4.77;80.77
21728;BME280;11026;50.560;17.852;2024-03-17T07:05:57;100170.47;;;4.82;79.79
21728;BME280;11026;50.560;17.852;2024-03-17T07:08:24;100169.47;;;4.95;82.31
21728;BME280;11026;50.560;17.852;2024-03-17T07:11:01;100173.72;;;5.02;77.83
21728;BME280;11026;50.560;17.852;2024-03-17T07:13:34;100180.81;;;4.94;76.88
21728;BME280;11026;50.560;17.852;2024-03-17T07:16:01;100180.81;;;4.94;75.85
21728;BME280;11026;50.560;17.852;2024-03-17T07:18:28;100177.06;;;5.16;77.69
21728;BME280;11026;50.560;17.852;2024-03-17T07:20:58;100187.47;;;5.24;76.68
21728;BME280;11026;50.560;17.852;2024-03-17T07:23:25;100183.13;;;5.23;76.21
21728;BME280;11026;50.560;17.852;2024-03-17T07:25:59;100187.38;;;5.32;77.19
21728;BME280;11026;50.560;17.852;2024-03-17T07:28:28;100182.78;;;5.49;77.59
21728;BME280;11026;50.560;17.852;2024-03-17T07:30:56;100198.56;;;5.46;73.56
21728;BME280;11026;50.560;17.852;2024-03-17T07:33:25;100205.72;;;5.35;75.02
21728;BME280;11026;50.560;17.852;2024-03-17T07:35:54;100207.91;;;4.96;74.52
21728;BME280;11026;50.560;17.852;2024-03-17T07:38:23;100197.34;;;5.04;77.78
21728;BME280;11026;50.560;17.852;2024-03-17T07:41:04;100185.59;;;5.34;79.39
21728;BME280;11026;50.560;17.852;2024-03-17T07:43:37;100186.22;;;5.56;78.12
21728;BME280;11026;50.560;17.852;2024-03-17T07:46:09;100201.16;;;5.49;75.99
21728;BME280;11026;50.560;17.852;2024-03-17T07:48:37;100195.13;;;5.41;74.99
21728;BME280;11026;50.560;17.852;2024-03-17T07:51:09;100194.28;;;5.40;75.04
21728;BME280;11026;50.560;17.852;2024-03-17T07:53:36;100198.88;;;5.23;74.69
21728;BME280;11026;50.560;17.852;2024-03-17T07:56:07;100196.09;;;5.34;75.70
21728;BME280;11026;50.560;17.852;2024-03-17T07:58:38;100195.06;;;5.46;74.60
21728;BME280;11026;50.560;17.852;2024-03-17T08:01:14;100200.19;;;5.56;75.10
21728;BME280;11026;50.560;17.852;2024-03-17T08:03:45;100188.69;;;5.66;72.01
21728;BME280;11026;50.560;17.852;2024-03-17T08:06:11;100199.28;;;5.60;71.35
21728;BME280;11026;50.560;17.852;2024-03-17T08:08:41;100197.50;;;5.62;71.12
21728;BME280;11026;50.560;17.852;2024-03-17T08:11:07;100186.72;;;5.81;70.73
21728;BME280;11026;50.560;17.852;2024-03-17T08:13:34;100186.59;;;5.93;70.66
21728;BME280;11026;50.560;17.852;2024-03-17T08:16:07;100188.00;;;6.15;69.79
21728;BME280;11026;50.560;17.852;2024-03-17T08:18:38;100194.91;;;6.23;70.06
21728;BME280;11026;50.560;17.852;2024-03-17T08:21:04;100191.63;;;6.08;69.26
21728;BME280;11026;50.560;17.852;2024-03-17T08:23:33;100197.81;;;6.06;70.58
21728;BME280;11026;50.560;17.852;2024-03-17T08:26:03;100209.41;;;5.88;68.63
21728;BME280;11026;50.560;17.852;2024-03-17T08:28:30;100196.16;;;5.99;69.47
21728;BME280;11026;50.560;17.852;2024-03-17T08:30:58;100192.59;;;6.03;66.78
21728;BME280;11026;50.560;17.852;2024-03-17T08:33:24;100185.22;;;6.26;68.68
21728;BME280;11026;50.560;17.852;2024-03-17T08:38:29;100182.09;;;6.03;66.32
21728;BME280;11026;50.560;17.852;2024-03-17T08:41:02;100174.00;;;6.13;67.63
21728;BME280;11026;50.560;17.852;2024-03-17T08:43:29;100183.78;;;6.07;68.22
21728;BME280;11026;50.560;17.852;2024-03-17T08:46:03;100183.63;;;6.16;67.65
21728;BME280;11026;50.560;17.852;2024-03-17T08:48:35;100177.25;;;6.31;67.39
21728;BME280;11026;50.560;17.852;2024-03-17T08:51:03;100182.47;;;6.34;65.63
21728;BME280;11026;50.560;17.852;2024-03-17T08:53:31;100190.03;;;6.52;67.73
21728;BME280;11026;50.560;17.852;2024-03-17T08:55:58;100187.53;;;6.46;66.58
21728;BME280;11026;50.560;17.852;2024-03-17T08:58:25;100185.75;;;6.47;67.50
21728;BME280;11026;50.560;17.852;2024-03-17T09:00:51;100179.56;;;6.51;66.67
21728;BME280;11026;50.560;17.852;2024-03-17T09:03:18;100184.75;;;6.54;67.64
21728;BME280;11026;50.560;17.852;2024-03-17T09:05:47;100189.91;;;6.61;67.98
21728;BME280;11026;50.560;17.852;2024-03-17T09:08:18;100178.66;;;6.53;65.25
21728;BME280;11026;50.560;17.852;2024-03-17T09:10:52;100175.28;;;6.93;63.09
21728;BME280;11026;50.560;17.852;2024-03-17T09:13:23;100160.00;;;7.13;60.67
21728;BME280;11026;50.560;17.852;2024-03-17T09:16:10;100178.22;;;7.23;61.46
21728;BME280;11026;50.560;17.852;2024-03-17T09:18:37;100179.38;;;7.51;62.08
21728;BME280;11026;50.560;17.852;2024-03-17T09:21:06;100175.94;;;7.04;62.37
21728;BME280;11026;50.560;17.852;2024-03-17T09:23:36;100177.81;;;7.43;62.75
21728;BME280;11026;50.560;17.852;2024-03-17T09:26:05;100159.09;;;7.56;59.85
21728;BME280;11026;50.560;17.852;2024-03-17T09:28:36;100173.94;;;7.60;61.36
21728;BME280;11026;50.560;17.852;2024-03-17T09:31:03;100186.56;;;7.45;60.37
21728;BME280;11026;50.560;17.852;2024-03-17T09:33:34;100170.25;;;7.26;60.55
21728;BME280;11026;50.560;17.852;2024-03-17T09:38:33;100167.97;;;7.52;59.76
21728;BME280;11026;50.560;17.852;2024-03-17T09:41:00;100168.34;;;7.34;60.76
21728;BME280;11026;50.560;17.852;2024-03-17T09:43:28;100162.13;;;7.38;60.13
21728;BME280;11026;50.560;17.852;2024-03-17T09:45:55;100156.00;;;7.36;60.06
21728;BME280;11026;50.560;17.852;2024-03-17T09:48:28;100164.44;;;7.08;60.69
21728;BME280;11026;50.560;17.852;2024-03-17T09:50:58;100169.50;;;7.21;60.42
21728;BME280;11026;50.560;17.852;2024-03-17T09:53:34;100161.22;;;7.39;59.19
21728;BME280;11026;50.560;17.852;2024-03-17T09:56:03;100161.81;;;7.91;59.21
21728;BME280;11026;50.560;17.852;2024-03-17T09:58:31;100161.69;;;7.58;58.44
21728;BME280;11026;50.560;17.852;2024-03-17T10:00:57;100153.44;;;8.12;60.05
21728;BME280;11026;50.560;17.852;2024-03-17T10:06:22;100172.78;;;8.48;59.15
21728;BME280;11026;50.560;17.852;2024-03-17T10:08:55;100152.78;;;8.40;57.42
21728;BME280;11026;50.560;17.852;2024-03-17T10:11:24;100148.91;;;8.17;57.61
21728;BME280;11026;50.560;17.852;2024-03-17T10:14:07;100150.50;;;8.24;58.91
21728;BME280;11026;50.560;17.852;2024-03-17T10:16:35;100125.53;;;8.39;58.36
21728;BME280;11026;50.560;17.852;2024-03-17T10:21:46;100158.63;;;7.78;59.05
21728;BME280;11026;50.560;17.852;2024-03-17T10:24:21;100143.53;;;7.44;58.26
21728;BME280;11026;50.560;17.852;2024-03-17T10:26:49;100129.19;;;7.59;57.70
21728;BME280;11026;50.560;17.852;2024-03-17T10:29:33;100141.63;;;8.27;57.45
21728;BME280;11026;50.560;17.852;2024-03-17T10:32:15;100152.75;;;8.74;56.34
21728;BME280;11026;50.560;17.852;2024-03-17T10:34:46;100132.94;;;9.52;56.56
21728;BME280;11026;50.560;17.852;2024-03-17T10:37:20;100128.75;;;9.75;53.83
21728;BME280;11026;50.560;17.852;2024-03-17T10:39:51;100121.91;;;9.96;53.64
21728;BME280;11026;50.560;17.852;2024-03-17T10:42:28;100134.78;;;10.06;53.61
21728;BME280;11026;50.560;17.852;2024-03-17T10:44:56;100128.91;;;11.01;51.29
21728;BME280;11026;50.560;17.852;2024-03-17T10:47:26;100116.72;;;10.72;51.68
21728;BME280;11026;50.560;17.852;2024-03-17T10:49:54;100131.22;;;10.07;51.09
21728;BME280;11026;50.560;17.852;2024-03-17T10:52:22;100135.94;;;10.26;50.84
21728;BME280;11026;50.560;17.852;2024-03-17T10:54:55;100125.94;;;10.61;51.34
21728;BME280;11026;50.560;17.852;2024-03-17T11:00:07;100119.00;;;10.31;50.80
21728;BME280;11026;50.560;17.852;2024-03-17T11:02:41;100134.47;;;10.16;51.41
21728;BME280;11026;50.560;17.852;2024-03-17T11:05:21;100125.16;;;10.32;50.28
21728;BME280;11026;50.560;17.852;2024-03-17T11:07:51;100135.78;;;10.30;50.76
21728;BME280;11026;50.560;17.852;2024-03-17T11:10:22;100135.34;;;10.94;51.19
21728;BME280;11026;50.560;17.852;2024-03-17T11:20:43;100131.97;;;11.61;48.53
21728;BME280;11026;50.560;17.852;2024-03-17T11:23:09;100126.50;;;11.42;48.58
21728;BME280;11026;50.560;17.852;2024-03-17T11:28:04;100129.41;;;12.03;50.73
21728;BME280;11026;50.560;17.852;2024-03-17T11:30:48;100115.28;;;11.81;48.22
21728;BME280;11026;50.560;17.852;2024-03-17T11:41:52;100100.94;;;11.87;48.09
21728;BME280;11026;50.560;17.852;2024-03-17T11:44:24;100103.56;;;11.65;46.79
21728;BME280;11026;50.560;17.852;2024-03-17T11:47:05;100095.03;;;11.80;46.79
21728;BME280;11026;50.560;17.852;2024-03-17T11:49:36;100090.34;;;11.87;47.67
21728;BME280;11026;50.560;17.852;2024-03-17T11:52:05;100105.16;;;11.92;47.37
21728;BME280;11026;50.560;17.852;2024-03-17T11:54:35;100100.66;;;12.37;46.79
21728;BME280;11026;50.560;17.852;2024-03-17T11:57:06;100093.53;;;12.17;45.68
21728;BME280;11026;50.560;17.852;2024-03-17T11:59:36;100093.88;;;12.29;46.39
21728;BME280;11026;50.560;17.852;2024-03-17T12:04:40;100073.84;;;13.61;44.99
21728;BME280;11026;50.560;17.852;2024-03-17T12:07:12;100058.97;;;13.57;43.58
21728;BME280;11026;50.560;17.852;2024-03-17T12:09:42;100075.22;;;12.92;45.77
21728;BME280;11026;50.560;17.852;2024-03-17T12:12:11;100087.50;;;12.13;46.39
21728;BME280;11026;50.560;17.852;2024-03-17T12:14:39;100090.22;;;12.12;46.77
21728;BME280;11026;50.560;17.852;2024-03-17T12:17:10;100078.69;;;12.74;46.19
21728;BME280;11026;50.560;17.852;2024-03-17T12:19:37;100053.25;;;13.28;44.11
21728;BME280;11026;50.560;17.852;2024-03-17T12:22:06;100070.91;;;12.08;45.13
21728;BME280;11026;50.560;17.852;2024-03-17T12:24:36;100058.59;;;11.85;47.48
21728;BME280;11026;50.560;17.852;2024-03-17T12:27:05;100048.88;;;12.88;46.47
21728;BME280;11026;50.560;17.852;2024-03-17T12:29:39;100062.38;;;12.63;46.12
21728;BME280;11026;50.560;17.852;2024-03-17T12:32:16;100059.19;;;12.34;45.44
21728;BME280;11026;50.560;17.852;2024-03-17T12:34:44;100041.19;;;13.40;44.76
21728;BME280;11026;50.560;17.852;2024-03-17T12:37:22;100041.50;;;14.23;42.71
21728;BME280;11026;50.560;17.852;2024-03-17T12:39:49;100035.75;;;14.48;41.45
21728;BME280;11026;50.560;17.852;2024-03-17T12:42:25;100039.91;;;13.66;43.30
21728;BME280;11026;50.560;17.852;2024-03-17T12:45:01;100043.16;;;13.53;43.03
21728;BME280;11026;50.560;17.852;2024-03-17T12:47:31;100046.84;;;13.32;43.04
21728;BME280;11026;50.560;17.852;2024-03-17T12:49:59;100034.03;;;13.78;41.26
21728;BME280;11026;50.560;17.852;2024-03-17T12:52:33;100038.78;;;13.52;44.23
21728;BME280;11026;50.560;17.852;2024-03-17T12:55:09;100024.97;;;13.27;41.92
21728;BME280;11026;50.560;17.852;2024-03-17T12:58:05;100046.50;;;12.82;43.08
21728;BME280;11026;50.560;17.852;2024-03-17T13:00:46;100031.28;;;13.24;43.12
21728;BME280;11026;50.560;17.852;2024-03-17T13:03:33;100017.72;;;13.67;41.90
21728;BME280;11026;50.560;17.852;2024-03-17T13:06:01;100034.63;;;13.09;42.25
21728;BME280;11026;50.560;17.852;2024-03-17T13:08:32;100026.97;;;12.64;44.10
21728;BME280;11026;50.560;17.852;2024-03-17T13:10:59;100039.97;;;12.49;43.28
21728;BME280;11026;50.560;17.852;2024-03-17T13:13:26;100020.16;;;12.77;42.07
21728;BME280;11026;50.560;17.852;2024-03-17T13:15:52;100005.47;;;12.89;42.71
21728;BME280;11026;50.560;17.852;2024-03-17T13:18:20;100012.31;;;13.51;41.39
21728;BME280;11026;50.560;17.852;2024-03-17T13:20:46;100025.69;;;14.03;40.07
21728;BME280;11026;50.560;17.852;2024-03-17T13:23:16;100028.34;;;12.72;41.85
21728;BME280;11026;50.560;17.852;2024-03-17T13:25:42;100025.03;;;12.86;42.25
21728;BME280;11026;50.560;17.852;2024-03-17T13:28:10;100011.72;;;12.88;42.09
21728;BME280;11026;50.560;17.852;2024-03-17T13:30:38;100005.38;;;12.90;43.24